Time;durP1;ratioP1;P1;durP2;ratioP2;P2;SDS_P1;SDS_P2;PMS_P1;PMS_P2;Temp;Humidity;BMP_temperature;BMP_pressure;BME280_temperature;BME280_humidity;BME280_pressure;Samples;Min_cycle;Max_cycle;Signal;HPM_P1;HPM_P2
2023/01/07 00:01:37;;;;;;;27.73;18.93;;;3.70;99.90;;;;;;5078079;28;20240;-80
2023/01/07 00:04:26;;;;;;;31.90;20.10;;;3.70;99.90;;;;;;5060079;28;20227;-79
2023/01/07 00:07:15;;;;;;;30.07;20.37;;;3.90;99.90;;;;;;5052702;28;20591;-79
2023/01/07 00:10:04;;;;;;;36.13;22.27;;;3.90;99.90;;;;;;5092243;28;20250;-79
2023/01/07 00:12:54;;;;;;;34.43;21.83;;;4.00;99.90;;;;;;5054141;28;20230;-78
2023/01/07 00:15:44;;;;;;;35.30;21.60;;;4.00;99.90;;;;;;5059248;28;20599;-79
2023/01/07 00:18:33;;;;;;;35.67;21.47;;;4.00;99.90;;;;;;5103885;27;20238;-80
2023/01/07 00:21:23;;;;;;;37.00;23.83;;;4.00;99.90;;;;;;5080860;28;20216;-79
2023/01/07 00:24:12;;;;;;;31.50;20.90;;;4.10;99.90;;;;;;5079358;28;20672;-79
2023/01/07 00:27:01;;;;;;;37.00;23.20;;;4.10;99.90;;;;;;5087085;28;20223;-79
2023/01/07 00:29:50;;;;;;;37.17;23.07;;;4.00;99.90;;;;;;5107052;27;20289;-77
2023/01/07 00:32:53;;;;;;;37.97;21.57;;;4.10;99.90;;;;;;5095816;27;20233;-78
2023/01/07 00:35:43;;;;;;;35.20;21.60;;;4.10;99.90;;;;;;5081360;28;20594;-78
2023/01/07 00:38:32;;;;;;;36.80;22.03;;;4.20;99.90;;;;;;5085508;28;20281;-77
2023/01/07 00:41:21;;;;;;;35.87;22.63;;;4.20;99.90;;;;;;5080969;28;20219;-78
2023/01/07 00:44:10;;;;;;;41.10;22.87;;;4.30;99.90;;;;;;5077251;28;20310;-77
2023/01/07 00:46:59;;;;;;;47.23;25.17;;;4.20;99.90;;;;;;5071648;28;20785;-77
2023/01/07 00:49:50;;;;;;;41.57;23.17;;;4.20;99.90;;;;;;5075483;28;20702;-78
2023/01/07 00:52:38;;;;;;;46.40;25.07;;;4.20;99.90;;;;;;5105806;27;21019;-80
2023/01/07 00:55:28;;;;;;;54.03;26.57;;;4.30;99.90;;;;;;5075264;28;20771;-79
2023/01/07 00:58:20;;;;;;;51.67;26.60;;;4.30;99.90;;;;;;5076093;28;20304;-79
2023/01/07 01:01:11;;;;;;;56.70;27.63;;;4.30;99.90;;;;;;5080560;28;20250;-78
2023/01/07 01:04:00;;;;;;;56.27;27.17;;;4.30;99.90;;;;;;5074952;28;20248;-80
2023/01/07 01:06:50;;;;;;;53.23;27.23;;;4.40;99.90;;;;;;5076804;28;20215;-80
2023/01/07 01:09:39;;;;;;;53.03;25.87;;;4.40;99.90;;;;;;5107119;27;20247;-80
2023/01/07 01:12:29;;;;;;;51.67;25.93;;;4.50;99.90;;;;;;5075102;28;20243;-80
2023/01/07 01:15:18;;;;;;;58.10;26.27;;;4.50;99.90;;;;;;5039398;28;20373;-80
2023/01/07 01:18:07;;;;;;;56.40;27.23;;;4.50;99.90;;;;;;5054458;28;20302;-80
2023/01/07 01:20:56;;;;;;;55.60;27.27;;;4.40;99.90;;;;;;5068359;28;20217;-80
2023/01/07 01:23:47;;;;;;;64.53;28.10;;;4.50;99.90;;;;;;5073735;28;20219;-80
2023/01/07 01:26:36;;;;;;;56.13;28.13;;;4.50;99.90;;;;;;5059033;28;20223;-79
2023/01/07 01:29:25;;;;;;;58.53;28.80;;;4.50;99.90;;;;;;5078692;28;21016;-79
2023/01/07 01:32:14;;;;;;;61.30;28.27;;;4.40;99.90;;;;;;5078597;28;20230;-79
2023/01/07 01:35:05;;;;;;;60.77;29.53;;;4.40;99.90;;;;;;5077016;28;20227;-80
2023/01/07 01:37:54;;;;;;;56.53;27.80;;;4.50;99.90;;;;;;5071645;28;20227;-79
2023/01/07 01:40:45;;;;;;;66.13;29.73;;;4.40;99.90;;;;;;5072039;28;20238;-79
2023/01/07 01:43:37;;;;;;;59.10;29.33;;;4.50;99.90;;;;;;5078094;28;20242;-77
2023/01/07 01:46:33;;;;;;;57.47;29.23;;;4.50;99.90;;;;;;5080577;28;20223;-79
2023/01/07 01:49:26;;;;;;;69.60;31.63;;;4.60;99.90;;;;;;5092793;27;20231;-76
2023/01/07 01:52:17;;;;;;;65.50;31.33;;;4.60;99.90;;;;;;5068798;28;20288;-78
2023/01/07 01:55:09;;;;;;;66.90;31.53;;;4.60;99.90;;;;;;5079757;28;20645;-76
2023/01/07 01:58:03;;;;;;;69.17;32.43;;;4.50;99.90;;;;;;5076216;28;20224;-78
2023/01/07 02:00:53;;;;;;;71.33;32.90;;;4.50;99.90;;;;;;5102487;27;20219;-79
2023/01/07 02:03:43;;;;;;;66.70;32.17;;;4.60;99.90;;;;;;5071184;28;20620;-79
2023/01/07 02:06:42;;;;;;;69.83;32.20;;;4.60;99.90;;;;;;5103426;27;20220;-80
2023/01/07 02:09:31;;;;;;;68.23;33.00;;;4.60;99.90;;;;;;5087539;28;20699;-79
2023/01/07 02:12:39;;;;;;;68.87;31.50;;;4.60;99.90;;;;;;5072024;28;20900;-79
2023/01/07 02:15:38;;;;;;;69.23;32.37;;;4.70;99.90;;;;;;5111493;27;20222;-80
2023/01/07 02:18:42;;;;;;;72.83;33.70;;;4.70;99.90;;;;;;5076608;28;20306;-81
2023/01/07 02:21:42;;;;;;;74.97;34.30;;;4.70;99.90;;;;;;5077359;28;20227;-81
2023/01/07 02:25:04;;;;;;;75.70;33.23;;;4.70;99.90;;;;;;5105030;27;20231;-81
2023/01/07 02:28:31;;;;;;;71.40;33.20;;;4.80;99.90;;;;;;5079636;28;20276;-81
2023/01/07 02:31:38;;;;;;;66.53;31.43;;;4.80;99.90;;;;;;5073535;28;20808;-80
2023/01/07 02:34:36;;;;;;;74.97;33.87;;;4.80;99.90;;;;;;5087381;28;20223;-82
2023/01/07 02:37:33;;;;;;;70.37;32.77;;;4.80;99.90;;;;;;5098378;28;20220;-81
2023/01/07 02:40:27;;;;;;;70.53;32.90;;;4.80;99.90;;;;;;5087526;28;20238;-81
2023/01/07 02:43:22;;;;;;;73.73;32.73;;;4.90;99.90;;;;;;5078865;28;20277;-81
2023/01/07 02:46:18;;;;;;;65.40;32.20;;;4.90;99.90;;;;;;5088948;28;20721;-80
2023/01/07 02:49:09;;;;;;;72.33;33.13;;;4.90;99.90;;;;;;5078196;28;20220;-79
2023/01/07 02:52:17;;;;;;;68.53;31.10;;;4.90;99.90;;;;;;5078077;28;20211;-79
2023/01/07 02:55:10;;;;;;;69.53;32.30;;;5.00;99.90;;;;;;5075588;28;20981;-78
2023/01/07 02:58:46;;;;;;;63.90;30.57;;;5.00;99.90;;;;;;5087141;28;20223;-77
2023/01/07 03:01:48;;;;;;;66.50;31.70;;;5.00;99.90;;;;;;5059350;28;20860;-78
2023/01/07 03:05:12;;;;;;;66.37;32.07;;;5.00;99.90;;;;;;5057888;28;20320;-76
2023/01/07 03:08:21;;;;;;;65.33;29.97;;;4.90;99.90;;;;;;5044359;28;21043;-77
2023/01/07 03:11:11;;;;;;;64.57;29.53;;;5.00;99.90;;;;;;5072910;28;20228;-78
2023/01/07 03:14:06;;;;;;;58.80;29.37;;;5.00;99.90;;;;;;5071705;28;20228;-78
2023/01/07 03:17:00;;;;;;;63.27;29.80;;;5.00;99.90;;;;;;5050316;28;20222;-78
2023/01/07 03:19:54;;;;;;;59.40;29.17;;;5.00;99.90;;;;;;5068165;28;20293;-78
2023/01/07 03:22:44;;;;;;;61.43;29.37;;;5.00;99.90;;;;;;5060854;28;20369;-78
2023/01/07 03:25:44;;;;;;;61.90;29.93;;;5.10;99.90;;;;;;5045830;28;20277;-79
2023/01/07 03:28:36;;;;;;;65.67;30.87;;;5.00;99.90;;;;;;5074122;28;21205;-79
2023/01/07 03:31:28;;;;;;;67.97;30.23;;;4.90;99.90;;;;;;5040790;28;20386;-80
2023/01/07 03:34:20;;;;;;;60.70;29.50;;;4.80;99.90;;;;;;5076651;28;20216;-80
2023/01/07 03:37:15;;;;;;;65.73;29.90;;;4.80;99.90;;;;;;5072673;28;20228;-80
2023/01/07 03:40:09;;;;;;;61.90;29.30;;;4.90;99.90;;;;;;5054514;28;21075;-79
2023/01/07 03:43:01;;;;;;;59.13;29.37;;;5.00;99.90;;;;;;5055684;28;20727;-79
2023/01/07 03:45:52;;;;;;;59.83;29.90;;;4.90;99.90;;;;;;5056640;28;20216;-78
2023/01/07 03:48:41;;;;;;;66.77;30.67;;;4.90;99.90;;;;;;5058452;28;20248;-77
2023/01/07 03:51:30;;;;;;;66.77;29.77;;;4.80;99.90;;;;;;5054177;28;20235;-77
2023/01/07 03:54:18;;;;;;;71.23;29.37;;;4.70;99.90;;;;;;5080874;28;20228;-77
2023/01/07 03:57:07;;;;;;;70.30;29.60;;;4.70;99.90;;;;;;5080787;28;20281;-78
2023/01/07 03:59:58;;;;;;;63.77;30.47;;;4.70;99.90;;;;;;5057527;28;20235;-77
2023/01/07 04:02:47;;;;;;;61.77;29.63;;;4.70;99.90;;;;;;5052318;28;20361;-78
2023/01/07 04:05:43;;;;;;;65.63;30.97;;;4.80;99.90;;;;;;5066936;28;20801;-77
2023/01/07 04:08:32;;;;;;;60.47;29.60;;;4.80;99.90;;;;;;5054650;28;20221;-77
2023/01/07 04:11:22;;;;;;;64.07;29.73;;;4.80;99.90;;;;;;5091756;28;20237;-77
2023/01/07 04:14:11;;;;;;;59.10;29.07;;;4.80;99.90;;;;;;5068271;28;20231;-79
2023/01/07 04:17:02;;;;;;;61.80;30.53;;;4.80;99.90;;;;;;5077291;28;20974;-77
2023/01/07 04:19:50;;;;;;;58.97;29.50;;;4.90;99.90;;;;;;5041281;28;20603;-76
2023/01/07 04:22:39;;;;;;;58.07;29.87;;;4.90;99.90;;;;;;5077166;28;20227;-77
2023/01/07 04:25:31;;;;;;;57.80;30.50;;;4.90;99.90;;;;;;5073599;28;20222;-77
2023/01/07 04:28:23;;;;;;;60.70;29.07;;;4.90;99.90;;;;;;5065500;28;20316;-77
2023/01/07 04:31:12;;;;;;;59.20;30.80;;;4.90;99.90;;;;;;5087295;27;20224;-76
2023/01/07 04:34:02;;;;;;;54.10;29.17;;;4.90;99.90;;;;;;5091764;28;20234;-77
2023/01/07 04:36:51;;;;;;;55.00;28.90;;;4.80;99.90;;;;;;5065654;28;20254;-78
2023/01/07 04:39:41;;;;;;;57.60;29.07;;;4.90;99.90;;;;;;5069770;28;20230;-78
2023/01/07 04:42:29;;;;;;;51.80;27.60;;;4.90;99.90;;;;;;5078325;28;20310;-77
2023/01/07 04:45:19;;;;;;;52.97;29.20;;;4.90;99.90;;;;;;5079853;28;20598;-77
2023/01/07 04:48:08;;;;;;;53.57;29.30;;;5.10;99.90;;;;;;5097168;27;20224;-77
2023/01/07 04:50:58;;;;;;;53.80;27.70;;;5.00;99.90;;;;;;5075811;28;20234;-76
2023/01/07 04:53:48;;;;;;;53.77;27.57;;;5.10;99.90;;;;;;5058387;28;20576;-76
2023/01/07 04:56:38;;;;;;;53.23;28.53;;;5.10;99.90;;;;;;5045335;28;20227;-77
2023/01/07 04:59:27;;;;;;;51.50;27.23;;;5.20;99.90;;;;;;5078957;28;20246;-78
2023/01/07 05:02:16;;;;;;;51.53;27.40;;;5.20;99.90;;;;;;5084396;28;20242;-78
2023/01/07 05:05:06;;;;;;;49.87;27.37;;;5.20;99.90;;;;;;5050408;28;20219;-78
2023/01/07 05:07:57;;;;;;;46.30;26.53;;;5.10;99.90;;;;;;5061703;28;20215;-77
2023/01/07 05:10:50;;;;;;;51.33;26.00;;;5.20;99.90;;;;;;5066172;28;20211;-78
2023/01/07 05:13:39;;;;;;;49.20;26.93;;;5.20;99.90;;;;;;5063078;28;20261;-78
2023/01/07 05:16:28;;;;;;;45.40;26.77;;;5.20;99.90;;;;;;5047952;28;20368;-77
2023/01/07 05:19:21;;;;;;;49.03;25.53;;;5.30;99.90;;;;;;5058668;28;20891;-76
2023/01/07 05:22:11;;;;;;;47.90;26.53;;;5.20;99.90;;;;;;5061685;28;20223;-76
2023/01/07 05:25:03;;;;;;;47.17;26.30;;;5.30;99.90;;;;;;5068675;28;20214;-77
2023/01/07 05:27:52;;;;;;;51.33;26.67;;;5.30;99.90;;;;;;5071462;28;20220;-77
2023/01/07 05:30:44;;;;;;;44.20;25.10;;;5.40;99.90;;;;;;5069895;28;20224;-77
2023/01/07 05:33:33;;;;;;;45.70;26.27;;;5.40;99.90;;;;;;5078696;28;20223;-76
2023/01/07 05:36:23;;;;;;;48.40;25.10;;;5.40;99.90;;;;;;5090198;28;20229;-76
2023/01/07 05:39:12;;;;;;;46.60;25.73;;;5.40;99.90;;;;;;5078240;28;20354;-77
2023/01/07 05:42:03;;;;;;;37.73;24.10;;;5.40;99.90;;;;;;5110612;27;20246;-77
2023/01/07 05:44:51;;;;;;;45.17;25.07;;;5.40;99.90;;;;;;5092764;27;20224;-77
2023/01/07 05:47:42;;;;;;;46.37;26.03;;;5.40;99.90;;;;;;5081742;27;20235;-78
2023/01/07 05:50:31;;;;;;;42.27;24.87;;;5.40;99.90;;;;;;5074500;28;20298;-78
2023/01/07 05:53:20;;;;;;;46.33;26.57;;;5.40;99.90;;;;;;5076485;28;20250;-79
2023/01/07 05:56:09;;;;;;;46.23;25.20;;;5.30;99.90;;;;;;5076300;28;20753;-81
2023/01/07 05:58:59;;;;;;;41.40;23.73;;;5.30;99.90;;;;;;5073075;28;20918;-80
2023/01/07 06:01:48;;;;;;;47.93;25.13;;;5.30;99.90;;;;;;5073616;28;20216;-79
2023/01/07 06:04:37;;;;;;;45.10;24.87;;;5.40;99.90;;;;;;5075355;28;20247;-79
2023/01/07 06:07:26;;;;;;;40.80;24.17;;;5.40;99.90;;;;;;5077041;28;20280;-79
2023/01/07 06:10:16;;;;;;;39.27;23.70;;;5.50;99.90;;;;;;5102324;27;20219;-79
2023/01/07 06:13:05;;;;;;;40.03;23.47;;;5.50;99.90;;;;;;5073831;28;20273;-80
2023/01/07 06:16:00;;;;;;;44.80;23.67;;;5.50;99.90;;;;;;5076137;28;20221;-81
2023/01/07 06:18:49;;;;;;;39.27;22.73;;;5.50;99.90;;;;;;5068510;28;20322;-79
2023/01/07 06:21:37;;;;;;;40.90;22.20;;;5.50;99.90;;;;;;5106377;27;20222;-78
2023/01/07 06:24:26;;;;;;;39.60;22.60;;;5.50;99.90;;;;;;5076532;28;20254;-76
2023/01/07 06:27:15;;;;;;;40.27;21.53;;;5.50;99.90;;;;;;5078689;28;20219;-78
2023/01/07 06:30:04;;;;;;;43.13;21.97;;;5.50;99.90;;;;;;5085450;27;20218;-79
2023/01/07 06:32:55;;;;;;;38.10;22.10;;;5.50;99.90;;;;;;5091081;27;20223;-79
2023/01/07 06:35:45;;;;;;;40.23;22.27;;;5.60;99.90;;;;;;5071718;28;20235;-80
2023/01/07 06:38:34;;;;;;;37.03;22.37;;;5.60;99.90;;;;;;5075050;27;20223;-78
2023/01/07 06:41:23;;;;;;;43.33;22.97;;;5.60;99.90;;;;;;5086707;28;20389;-78
2023/01/07 06:44:12;;;;;;;39.50;23.20;;;5.60;99.90;;;;;;5072345;28;20701;-78
2023/01/07 06:47:01;;;;;;;43.13;24.67;;;5.70;99.90;;;;;;5101310;27;20307;-80
2023/01/07 06:49:51;;;;;;;44.27;24.50;;;5.50;99.90;;;;;;5089096;28;20251;-77
2023/01/07 06:52:41;;;;;;;42.27;24.17;;;5.50;99.90;;;;;;5075536;28;20227;-76
2023/01/07 06:55:30;;;;;;;44.53;25.00;;;5.50;99.90;;;;;;5083154;28;20231;-77
2023/01/07 06:58:19;;;;;;;44.83;25.57;;;5.50;99.90;;;;;;5102676;28;20815;-77
2023/01/07 07:01:09;;;;;;;48.03;26.37;;;5.50;99.90;;;;;;5083566;28;20226;-77
2023/01/07 07:03:58;;;;;;;48.23;26.00;;;5.30;99.90;;;;;;5079356;28;20357;-76
2023/01/07 07:06:48;;;;;;;47.40;25.43;;;5.40;99.90;;;;;;5072939;27;20306;-76
2023/01/07 07:09:36;;;;;;;46.73;25.93;;;5.40;99.90;;;;;;5081981;28;20598;-76
2023/01/07 07:12:25;;;;;;;50.00;26.67;;;5.50;99.90;;;;;;5031038;28;20231;-75
2023/01/07 07:15:14;;;;;;;50.90;27.23;;;5.40;99.90;;;;;;5052430;28;20220;-75
2023/01/07 07:18:03;;;;;;;49.47;25.87;;;5.40;99.90;;;;;;5042519;28;20220;-77
2023/01/07 07:20:52;;;;;;;52.63;26.30;;;5.40;99.90;;;;;;5032804;28;21082;-77
2023/01/07 07:23:42;;;;;;;49.13;25.87;;;5.30;99.90;;;;;;5080233;28;20224;-77
2023/01/07 07:26:31;;;;;;;53.93;27.33;;;5.30;99.90;;;;;;5072270;28;20231;-77
2023/01/07 07:29:20;;;;;;;47.13;25.90;;;5.40;99.90;;;;;;5100094;27;20235;-77
2023/01/07 07:32:10;;;;;;;50.43;26.70;;;5.50;99.90;;;;;;5068739;28;20294;-77
2023/01/07 07:34:58;;;;;;;46.40;24.33;;;5.60;99.90;;;;;;5101953;27;20361;-78
2023/01/07 07:37:47;;;;;;;47.23;25.47;;;5.60;99.90;;;;;;5100948;28;20251;-78
2023/01/07 07:40:37;;;;;;;45.80;24.13;;;5.60;99.90;;;;;;5073512;28;20250;-78
2023/01/07 07:43:26;;;;;;;41.67;23.30;;;5.60;99.90;;;;;;5072649;28;20232;-78
2023/01/07 07:46:15;;;;;;;43.50;23.30;;;5.60;99.90;;;;;;5076803;28;20752;-78
2023/01/07 07:49:05;;;;;;;41.93;24.13;;;5.70;99.90;;;;;;5070796;28;20212;-76
2023/01/07 07:51:54;;;;;;;44.10;24.73;;;5.80;99.90;;;;;;5074833;28;20219;-77
2023/01/07 07:54:43;;;;;;;43.97;24.17;;;5.80;99.90;;;;;;5077173;28;20599;-79
2023/01/07 07:57:33;;;;;;;47.30;24.00;;;5.90;99.90;;;;;;5099659;27;20223;-78
2023/01/07 08:00:23;;;;;;;46.73;24.03;;;5.90;99.90;;;;;;5068999;28;20767;-78
2023/01/07 08:03:12;;;;;;;40.27;23.03;;;6.00;99.90;;;;;;5100411;27;20347;-79
2023/01/07 08:06:01;;;;;;;39.00;21.90;;;6.00;99.90;;;;;;5073788;28;20615;-81
2023/01/07 08:08:49;;;;;;;35.37;20.60;;;6.00;99.90;;;;;;5074651;28;20226;-80
2023/01/07 08:11:38;;;;;;;35.87;20.20;;;6.10;99.90;;;;;;5079628;28;20231;-81
2023/01/07 08:14:28;;;;;;;39.77;20.77;;;6.10;99.90;;;;;;5079722;28;20245;-81
2023/01/07 08:17:18;;;;;;;36.20;20.10;;;6.20;99.90;;;;;;5076284;28;20227;-82
2023/01/07 08:20:08;;;;;;;37.80;20.87;;;6.20;99.90;;;;;;5081393;28;20219;-81
2023/01/07 08:22:58;;;;;;;40.47;20.33;;;6.30;99.90;;;;;;5106691;27;20237;-79
2023/01/07 08:25:47;;;;;;;39.40;21.03;;;6.40;99.90;;;;;;5079151;28;20216;-82
2023/01/07 08:28:38;;;;;;;52.30;25.33;;;6.40;99.90;;;;;;5104386;27;20272;-81
2023/01/07 08:31:28;;;;;;;44.30;21.20;;;6.50;99.90;;;;;;5104460;27;20561;-80
2023/01/07 08:34:17;;;;;;;48.40;21.97;;;6.50;99.90;;;;;;5107261;27;20315;-81
2023/01/07 08:37:06;;;;;;;44.17;22.07;;;6.60;99.90;;;;;;5078703;28;20227;-79
2023/01/07 08:39:54;;;;;;;36.60;21.87;;;6.60;99.90;;;;;;5109570;27;20215;-85
2023/01/07 08:42:43;;;;;;;46.47;23.77;;;6.60;99.90;;;;;;5089918;28;20322;-83
2023/01/07 08:45:32;;;;;;;52.53;28.70;;;6.60;99.90;;;;;;5078942;28;20826;-83
2023/01/07 08:48:23;;;;;;;45.63;23.80;;;6.70;99.90;;;;;;5083066;28;20328;-83
2023/01/07 08:51:12;;;;;;;41.50;22.90;;;6.80;99.90;;;;;;5076269;28;20730;-83
2023/01/07 08:54:01;;;;;;;40.53;22.40;;;6.90;99.90;;;;;;5112083;27;20966;-82
2023/01/07 08:56:49;;;;;;;43.43;22.03;;;6.90;99.90;;;;;;5079857;28;20238;-82
2023/01/07 08:59:39;;;;;;;35.63;21.73;;;6.90;99.90;;;;;;5080513;28;20232;-82
2023/01/07 09:02:28;;;;;;;38.23;21.67;;;7.00;99.90;;;;;;5098304;28;20217;-83
2023/01/07 09:05:18;;;;;;;38.30;22.43;;;7.00;99.90;;;;;;5098356;28;20216;-78
2023/01/07 09:08:07;;;;;;;37.43;22.97;;;7.00;99.90;;;;;;5110289;28;20220;-81
2023/01/07 09:10:56;;;;;;;37.47;22.03;;;7.00;99.90;;;;;;5101470;27;20273;-82
2023/01/07 09:13:45;;;;;;;40.23;23.33;;;7.20;99.90;;;;;;5078423;28;20922;-84
2023/01/07 09:16:34;;;;;;;38.83;23.97;;;7.10;99.90;;;;;;5083235;28;20866;-84
2023/01/07 09:19:23;;;;;;;36.67;24.27;;;7.10;99.90;;;;;;5104797;27;20250;-84
2023/01/07 09:22:13;;;;;;;37.80;24.07;;;7.20;99.90;;;;;;5082521;28;20253;-85
2023/01/07 09:25:02;;;;;;;39.83;26.03;;;7.20;99.90;;;;;;5098317;28;20224;-84
2023/01/07 09:27:51;;;;;;;41.50;26.53;;;7.30;99.90;;;;;;5079853;28;20349;-84
2023/01/07 09:30:40;;;;;;;40.57;26.50;;;7.20;99.90;;;;;;5073996;28;20228;-80
2023/01/07 09:33:30;;;;;;;42.40;26.67;;;7.10;99.90;;;;;;5075131;28;20783;-85
2023/01/07 09:36:19;;;;;;;40.23;26.30;;;7.10;99.90;;;;;;5078869;28;20314;-85
2023/01/07 09:39:12;;;;;;;41.47;26.53;;;7.20;99.90;;;;;;5102719;27;21017;-85
2023/01/07 09:42:09;;;;;;;48.30;27.43;;;7.10;99.90;;;;;;5109614;27;20216;-87
2023/01/07 09:45:34;;;;;;;42.13;26.53;;;7.10;99.90;;;;;;5077840;28;20656;-87
2023/01/07 09:48:28;;;;;;;45.23;27.10;;;7.20;99.90;;;;;;5084713;28;20225;-82
2023/01/07 09:51:23;;;;;;;42.57;27.17;;;7.20;99.90;;;;;;5079390;28;20212;-85
2023/01/07 09:54:22;;;;;;;40.77;24.87;;;7.20;99.90;;;;;;5083344;27;20231;-85
2023/01/07 09:57:16;;;;;;;37.37;25.00;;;7.10;99.90;;;;;;5080449;27;20995;-81
2023/01/07 10:00:15;;;;;;;38.30;23.87;;;7.10;99.90;;;;;;5081941;27;22188;-81
2023/01/07 10:03:17;;;;;;;36.50;23.80;;;7.00;99.90;;;;;;5075958;28;20212;-87
2023/01/07 10:06:11;;;;;;;38.93;23.67;;;7.00;99.90;;;;;;5083222;28;20224;-89
2023/01/07 10:09:07;;;;;;;36.33;25.00;;;6.90;99.90;;;;;;5091553;28;20338;-85
2023/01/07 10:12:18;;;;;;;37.70;22.23;;;7.00;99.90;;;;;;5098364;28;20211;-94
2023/01/07 10:15:32;;;;;;;35.83;22.90;;;7.00;99.90;;;;;;5088914;28;20223;-91
2023/01/07 10:18:35;;;;;;;34.33;21.90;;;7.00;99.90;;;;;;5086106;28;20224;-88
2023/01/07 10:21:31;;;;;;;33.90;21.13;;;7.10;99.90;;;;;;5083171;28;20225;-88
2023/01/07 10:24:26;;;;;;;38.50;22.07;;;7.20;99.90;;;;;;5111010;27;20234;-86
2023/01/07 10:27:24;;;;;;;37.87;22.97;;;7.20;99.90;;;;;;5086657;27;20228;-86
2023/01/07 10:30:18;;;;;;;38.53;23.33;;;7.20;99.90;;;;;;5082498;28;20215;-85
2023/01/07 10:33:17;;;;;;;34.77;22.27;;;7.30;99.90;;;;;;5107650;27;20243;-85
2023/01/07 10:36:18;;;;;;;43.20;24.93;;;7.40;99.90;;;;;;5085621;28;20227;-85
2023/01/07 10:39:19;;;;;;;39.27;23.97;;;7.60;99.90;;;;;;5086579;28;20249;-86
2023/01/07 10:42:16;;;;;;;42.33;24.37;;;7.60;99.90;;;;;;5112572;27;20223;-85
2023/01/07 10:45:32;;;;;;;40.43;24.53;;;7.60;99.90;;;;;;5084459;28;20582;-85
2023/01/07 10:49:07;;;;;;;38.40;24.20;;;7.50;99.90;;;;;;5082450;28;20591;-86
2023/01/07 10:52:34;;;;;;;39.73;23.73;;;7.60;99.90;;;;;;5096171;28;20765;-86
2023/01/07 10:55:40;;;;;;;39.67;23.40;;;7.50;99.90;;;;;;5112023;27;20307;-86
2023/01/07 10:58:34;;;;;;;36.63;22.93;;;7.60;99.90;;;;;;5055744;28;20241;-83
2023/01/07 11:01:27;;;;;;;35.63;22.73;;;7.70;99.90;;;;;;5047767;28;20275;-86
2023/01/07 11:04:17;;;;;;;34.53;22.90;;;7.70;99.90;;;;;;5091009;28;20227;-86
2023/01/07 11:07:08;;;;;;;37.67;23.07;;;7.80;99.90;;;;;;5060059;28;20223;-87
2023/01/07 11:10:03;;;;;;;32.37;23.07;;;7.70;99.90;;;;;;5069468;28;20295;-88
2023/01/07 11:12:56;;;;;;;34.77;23.63;;;7.80;99.90;;;;;;5109075;28;20213;-87
2023/01/07 11:15:49;;;;;;;35.80;23.77;;;7.80;99.90;;;;;;5120862;27;20229;-87
2023/01/07 11:18:47;;;;;;;36.83;22.97;;;7.80;99.90;;;;;;5077367;28;20238;-86
2023/01/07 11:21:38;;;;;;;35.17;21.87;;;7.80;99.90;;;;;;5087374;27;20229;-86
2023/01/07 11:24:33;;;;;;;36.93;23.13;;;7.90;99.90;;;;;;5087075;27;20216;-86
2023/01/07 11:27:24;;;;;;;33.97;22.80;;;7.80;99.90;;;;;;5081885;28;20228;-87
2023/01/07 11:30:24;;;;;;;35.87;23.23;;;7.90;99.90;;;;;;5041757;28;20228;-87
2023/01/07 11:33:22;;;;;;;34.97;23.00;;;7.90;99.90;;;;;;5066073;28;20222;-87
2023/01/07 11:36:42;;;;;;;31.73;21.70;;;8.00;99.90;;;;;;5047383;28;20669;-86
2023/01/07 11:39:33;;;;;;;36.00;21.80;;;8.00;99.90;;;;;;5071756;28;20230;-88
2023/01/07 11:42:40;;;;;;;36.17;22.83;;;8.00;99.90;;;;;;5077032;28;20230;-87
2023/01/07 11:45:32;;;;;;;39.10;23.00;;;8.10;99.90;;;;;;5076840;28;20606;-87
2023/01/07 11:48:28;;;;;;;29.60;20.97;;;8.00;99.90;;;;;;5060543;28;20307;-88
2023/01/07 11:51:17;;;;;;;35.70;21.20;;;8.00;99.90;;;;;;5052379;28;20224;-87
2023/01/07 11:54:20;;;;;;;32.03;21.43;;;7.90;99.90;;;;;;5056110;28;20879;-88
2023/01/07 11:57:13;;;;;;;32.60;20.87;;;7.90;99.90;;;;;;5053351;28;20232;-88
2023/01/07 12:00:20;;;;;;;33.57;21.43;;;7.90;99.90;;;;;;5073486;28;20483;-87
2023/01/07 12:03:12;;;;;;;37.27;21.70;;;8.00;99.90;;;;;;5053626;28;20218;-87
2023/01/07 12:06:07;;;;;;;34.33;20.03;;;8.00;99.90;;;;;;5048527;28;20224;-87
2023/01/07 12:09:04;;;;;;;30.60;19.73;;;8.00;99.90;;;;;;5044213;28;20253;-87
2023/01/07 12:11:57;;;;;;;30.83;19.13;;;8.00;99.90;;;;;;5074550;28;20284;-87
2023/01/07 12:14:48;;;;;;;32.60;19.20;;;8.10;99.90;;;;;;5064800;28;20243;-87
2023/01/07 12:17:38;;;;;;;28.57;18.93;;;8.10;99.90;;;;;;5073204;28;20223;-86
2023/01/07 12:20:48;;;;;;;33.77;19.67;;;8.10;99.90;;;;;;5069340;28;20229;-87
2023/01/07 12:23:49;;;;;;;29.67;19.40;;;8.20;99.90;;;;;;5084696;28;20223;-86
2023/01/07 12:26:44;;;;;;;34.93;20.20;;;8.20;99.90;;;;;;5110593;27;20707;-85
2023/01/07 12:29:48;;;;;;;30.50;18.83;;;8.10;99.90;;;;;;5086184;28;20894;-87
2023/01/07 12:32:46;;;;;;;27.30;17.97;;;8.00;99.90;;;;;;5097239;27;20676;-86
2023/01/07 12:35:40;;;;;;;33.53;19.37;;;8.00;99.90;;;;;;5079372;28;20217;-86
2023/01/07 12:38:41;;;;;;;32.37;19.53;;;8.00;99.90;;;;;;5052436;28;20249;-86
2023/01/07 12:41:33;;;;;;;32.20;20.60;;;8.00;99.90;;;;;;5082598;28;20241;-87
2023/01/07 12:44:22;;;;;;;34.00;20.27;;;8.00;99.90;;;;;;5083555;28;20390;-86
2023/01/07 12:47:18;;;;;;;35.07;19.63;;;8.10;99.90;;;;;;5076346;28;20218;-86
2023/01/07 12:50:31;;;;;;;34.73;20.53;;;8.20;99.90;;;;;;5101345;28;20222;-86
2023/01/07 12:53:32;;;;;;;29.70;20.17;;;8.20;99.90;;;;;;5103559;28;20208;-86
2023/01/07 12:56:25;;;;;;;31.73;20.00;;;8.30;99.90;;;;;;5081879;28;20245;-87
2023/01/07 12:59:19;;;;;;;26.47;18.70;;;8.20;99.90;;;;;;5064931;28;20225;-87
2023/01/07 13:02:37;;;;;;;29.33;17.80;;;8.10;99.90;;;;;;5068484;28;20234;-87
2023/01/07 13:05:32;;;;;;;29.43;18.00;;;8.10;99.90;;;;;;5056767;28;20307;-86
2023/01/07 13:08:32;;;;;;;27.23;17.37;;;8.10;99.90;;;;;;5054660;28;20307;-87
2023/01/07 13:12:41;;;;;;;28.27;18.97;;;8.20;99.90;;;;;;5051574;28;20223;-86
2023/01/07 13:14:40;;;;;;;30.83;19.77;;;8.40;99.90;;;;;;5072462;28;20282;-87
2023/01/07 13:17:32;;;;;;;31.93;19.83;;;8.40;99.90;;;;;;5100871;28;20207;-87
2023/01/07 13:20:42;;;;;;;34.43;20.90;;;8.40;99.90;;;;;;5102118;28;20230;-85
2023/01/07 13:23:48;;;;;;;33.93;21.20;;;8.40;99.90;;;;;;5051535;28;20678;-87
2023/01/07 13:26:49;;;;;;;31.80;19.97;;;8.40;99.90;;;;;;5086667;28;20227;-86
2023/01/07 13:29:49;;;;;;;34.47;20.37;;;8.40;99.90;;;;;;5068204;28;20224;-85
2023/01/07 13:33:00;;;;;;;31.07;19.23;;;8.40;99.90;;;;;;5077637;28;20283;-86
2023/01/07 13:36:08;;;;;;;29.77;20.07;;;8.40;99.90;;;;;;5071486;28;20499;-85
2023/01/07 13:39:28;;;;;;;26.93;18.03;;;8.40;99.90;;;;;;5097892;28;20221;-86
2023/01/07 13:42:30;;;;;;;31.67;17.73;;;8.40;99.90;;;;;;5072073;28;20257;-87
2023/01/07 13:45:22;;;;;;;28.07;18.37;;;8.30;99.90;;;;;;5080482;28;20238;-86
2023/01/07 13:48:21;;;;;;;33.43;19.57;;;8.30;99.90;;;;;;5106414;27;20223;-86
2023/01/07 13:51:10;;;;;;;33.03;20.40;;;8.20;99.90;;;;;;5084404;28;20207;-87
2023/01/07 13:53:59;;;;;;;34.57;19.80;;;8.10;99.90;;;;;;5084200;28;20316;-82
2023/01/07 13:56:48;;;;;;;29.50;18.53;;;8.00;99.90;;;;;;5083870;28;20378;-86
2023/01/07 13:59:48;;;;;;;32.67;20.23;;;7.80;99.90;;;;;;5043469;28;20241;-86
2023/01/07 14:02:54;;;;;;;31.83;20.23;;;7.80;99.90;;;;;;5047737;28;20252;-89
2023/01/07 14:05:46;;;;;;;33.13;21.67;;;7.70;99.90;;;;;;5079686;28;20237;-87
2023/01/07 14:08:34;;;;;;;35.50;22.43;;;7.70;99.90;;;;;;5080371;28;20300;-87
2023/01/07 14:11:47;;;;;;;38.47;23.37;;;7.60;99.90;;;;;;5076036;28;20235;-87
2023/01/07 14:14:45;;;;;;;41.43;24.03;;;7.50;99.90;;;;;;5087375;28;20246;-87
2023/01/07 14:17:45;;;;;;;41.77;23.40;;;7.30;99.90;;;;;;5067657;28;20361;-87
2023/01/07 14:20:42;;;;;;;39.17;23.20;;;7.20;99.90;;;;;;5080945;28;20234;-86
2023/01/07 14:23:44;;;;;;;40.53;23.77;;;7.30;99.90;;;;;;5059062;28;20228;-86
2023/01/07 14:26:42;;;;;;;38.23;22.17;;;7.20;99.90;;;;;;5071891;28;20317;-88
2023/01/07 14:29:41;;;;;;;34.87;21.10;;;7.30;99.90;;;;;;5107262;27;20244;-87
2023/01/07 14:32:33;;;;;;;38.00;21.90;;;7.20;99.90;;;;;;5065873;28;20221;-86
2023/01/07 14:35:28;;;;;;;37.77;23.43;;;7.20;99.90;;;;;;5087242;28;20221;-86
2023/01/07 14:38:58;;;;;;;39.10;22.23;;;7.20;99.90;;;;;;5060200;28;20222;-86
2023/01/07 14:42:20;;;;;;;37.77;21.50;;;7.10;99.90;;;;;;5051050;28;20606;-87
2023/01/07 14:45:46;;;;;;;38.43;20.07;;;7.10;99.90;;;;;;5093268;28;20242;-86
2023/01/07 14:48:36;;;;;;;41.73;22.03;;;7.00;99.90;;;;;;5101019;27;20226;-86
2023/01/07 14:51:35;;;;;;;37.00;21.23;;;7.10;99.90;;;;;;5082297;28;20237;-87
2023/01/07 14:54:47;;;;;;;38.93;23.10;;;7.10;99.90;;;;;;5076856;28;20270;-85